sensor_id;sensor_type;location;lat;lon;timestamp;P1;durP1;ratioP1;P2;durP2;ratioP2
23140;SDS011;11739;54.750;9.124;2022-10-31T00:02:21;14.85;;;13.55;;
23140;SDS011;11739;54.750;9.124;2022-10-31T00:04:48;14.55;;;13.15;;
23140;SDS011;11739;54.750;9.124;2022-10-31T00:07:15;15.52;;;14.05;;
23140;SDS011;11739;54.750;9.124;2022-10-31T00:09:41;18.15;;;15.18;;
23140;SDS011;11739;54.750;9.124;2022-10-31T00:12:07;16.20;;;14.60;;
23140;SDS011;11739;54.750;9.124;2022-10-31T00:14:34;19.10;;;15.25;;
23140;SDS011;11739;54.750;9.124;2022-10-31T00:17:00;17.48;;;15.75;;
23140;SDS011;11739;54.750;9.124;2022-10-31T00:19:27;16.00;;;14.50;;
23140;SDS011;11739;54.750;9.124;2022-10-31T00:21:53;16.77;;;15.02;;
23140;SDS011;11739;54.750;9.124;2022-10-31T00:24:20;16.70;;;14.90;;
23140;SDS011;11739;54.750;9.124;2022-10-31T00:26:46;17.40;;;15.23;;
23140;SDS011;11739;54.750;9.124;2022-10-31T00:29:13;16.65;;;14.93;;
23140;SDS011;11739;54.750;9.124;2022-10-31T00:31:39;16.23;;;14.57;;
23140;SDS011;11739;54.750;9.124;2022-10-31T00:34:06;17.23;;;15.52;;
23140;SDS011;11739;54.750;9.124;2022-10-31T00:36:32;16.80;;;15.10;;
23140;SDS011;11739;54.750;9.124;2022-10-31T00:38:59;16.95;;;15.27;;
23140;SDS011;11739;54.750;9.124;2022-10-31T00:41:25;31.88;;;23.08;;
23140;SDS011;11739;54.750;9.124;2022-10-31T00:43:52;21.80;;;18.30;;
23140;SDS011;11739;54.750;9.124;2022-10-31T00:46:18;17.45;;;15.52;;
23140;SDS011;11739;54.750;9.124;2022-10-31T00:48:45;17.98;;;16.17;;
23140;SDS011;11739;54.750;9.124;2022-10-31T00:51:11;24.17;;;18.92;;
23140;SDS011;11739;54.750;9.124;2022-10-31T00:53:38;18.73;;;16.65;;
23140;SDS011;11739;54.750;9.124;2022-10-31T00:56:04;16.30;;;14.60;;
23140;SDS011;11739;54.750;9.124;2022-10-31T00:58:31;21.02;;;17.00;;
23140;SDS011;11739;54.750;9.124;2022-10-31T01:00:58;19.13;;;17.13;;
23140;SDS011;11739;54.750;9.124;2022-10-31T01:03:29;19.48;;;17.10;;
23140;SDS011;11739;54.750;9.124;2022-10-31T01:08:24;20.92;;;18.15;;
23140;SDS011;11739;54.750;9.124;2022-10-31T01:13:40;20.48;;;17.73;;
23140;SDS011;11739;54.750;9.124;2022-10-31T01:16:08;20.80;;;18.60;;
23140;SDS011;11739;54.750;9.124;2022-10-31T01:18:36;18.23;;;16.40;;
23140;SDS011;11739;54.750;9.124;2022-10-31T01:21:07;22.98;;;19.85;;
23140;SDS011;11739;54.750;9.124;2022-10-31T01:23:36;20.83;;;18.38;;
23140;SDS011;11739;54.750;9.124;2022-10-31T01:26:04;20.27;;;18.05;;
23140;SDS011;11739;54.750;9.124;2022-10-31T01:28:37;21.20;;;18.90;;
23140;SDS011;11739;54.750;9.124;2022-10-31T01:31:06;18.25;;;16.35;;
23140;SDS011;11739;54.750;9.124;2022-10-31T01:33:34;18.55;;;16.33;;
23140;SDS011;11739;54.750;9.124;2022-10-31T01:36:01;19.58;;;17.15;;
23140;SDS011;11739;54.750;9.124;2022-10-31T01:38:37;17.75;;;15.95;;
23140;SDS011;11739;54.750;9.124;2022-10-31T01:41:04;16.65;;;15.05;;
23140;SDS011;11739;54.750;9.124;2022-10-31T01:43:47;18.98;;;17.08;;
23140;SDS011;11739;54.750;9.124;2022-10-31T01:46:30;16.88;;;15.25;;
23140;SDS011;11739;54.750;9.124;2022-10-31T01:49:04;18.48;;;16.63;;
23140;SDS011;11739;54.750;9.124;2022-10-31T01:51:36;19.35;;;17.25;;
23140;SDS011;11739;54.750;9.124;2022-10-31T01:54:06;20.40;;;17.20;;
23140;SDS011;11739;54.750;9.124;2022-10-31T01:56:34;25.85;;;20.50;;
23140;SDS011;11739;54.750;9.124;2022-10-31T01:59:02;28.83;;;21.90;;
23140;SDS011;11739;54.750;9.124;2022-10-31T02:01:31;22.58;;;19.42;;
23140;SDS011;11739;54.750;9.124;2022-10-31T02:03:57;21.05;;;17.75;;
23140;SDS011;11739;54.750;9.124;2022-10-31T02:06:33;30.00;;;21.52;;
23140;SDS011;11739;54.750;9.124;2022-10-31T02:09:03;30.00;;;22.55;;
23140;SDS011;11739;54.750;9.124;2022-10-31T02:11:31;26.20;;;21.23;;
23140;SDS011;11739;54.750;9.124;2022-10-31T02:13:59;31.40;;;23.70;;
23140;SDS011;11739;54.750;9.124;2022-10-31T02:16:26;32.80;;;24.00;;
23140;SDS011;11739;54.750;9.124;2022-10-31T02:18:53;65.57;;;32.53;;
23140;SDS011;11739;54.750;9.124;2022-10-31T02:26:54;32.25;;;23.73;;
23140;SDS011;11739;54.750;9.124;2022-10-31T02:29:32;33.88;;;23.25;;
23140;SDS011;11739;54.750;9.124;2022-10-31T02:37:34;36.58;;;26.38;;
23140;SDS011;11739;54.750;9.124;2022-10-31T02:42:48;33.72;;;22.92;;
23140;SDS011;11739;54.750;9.124;2022-10-31T02:45:35;59.22;;;24.10;;
23140;SDS011;11739;54.750;9.124;2022-10-31T02:48:11;23.52;;;19.58;;
23140;SDS011;11739;54.750;9.124;2022-10-31T02:50:41;26.17;;;21.27;;
23140;SDS011;11739;54.750;9.124;2022-10-31T02:53:10;35.90;;;22.35;;
23140;SDS011;11739;54.750;9.124;2022-10-31T02:55:48;18.73;;;16.73;;
23140;SDS011;11739;54.750;9.124;2022-10-31T02:58:19;35.80;;;23.92;;
23140;SDS011;11739;54.750;9.124;2022-10-31T03:00:55;26.98;;;21.95;;
23140;SDS011;11739;54.750;9.124;2022-10-31T03:03:59;23.55;;;18.65;;
23140;SDS011;11739;54.750;9.124;2022-10-31T03:06:45;19.98;;;17.80;;
23140;SDS011;11739;54.750;9.124;2022-10-31T03:09:22;21.88;;;17.08;;
23140;SDS011;11739;54.750;9.124;2022-10-31T03:11:58;21.52;;;18.25;;
23140;SDS011;11739;54.750;9.124;2022-10-31T03:14:41;18.85;;;16.80;;
23140;SDS011;11739;54.750;9.124;2022-10-31T03:17:13;20.70;;;17.13;;
23140;SDS011;11739;54.750;9.124;2022-10-31T03:19:45;18.88;;;16.20;;
23140;SDS011;11739;54.750;9.124;2022-10-31T03:22:19;12.85;;;11.63;;
23140;SDS011;11739;54.750;9.124;2022-10-31T03:24:48;19.13;;;9.38;;
23140;SDS011;11739;54.750;9.124;2022-10-31T03:27:16;85.03;;;11.68;;
23140;SDS011;11739;54.750;9.124;2022-10-31T03:29:45;65.07;;;11.30;;
23140;SDS011;11739;54.750;9.124;2022-10-31T03:32:15;9.35;;;7.63;;
23140;SDS011;11739;54.750;9.124;2022-10-31T03:34:43;9.82;;;8.82;;
23140;SDS011;11739;54.750;9.124;2022-10-31T03:37:13;13.73;;;8.00;;
23140;SDS011;11739;54.750;9.124;2022-10-31T03:39:41;12.18;;;10.60;;
23140;SDS011;11739;54.750;9.124;2022-10-31T03:42:11;151.55;;;16.27;;
23140;SDS011;11739;54.750;9.124;2022-10-31T03:44:41;21.33;;;11.88;;
23140;SDS011;11739;54.750;9.124;2022-10-31T03:47:09;13.02;;;11.88;;
23140;SDS011;11739;54.750;9.124;2022-10-31T03:49:36;23.38;;;13.43;;
23140;SDS011;11739;54.750;9.124;2022-10-31T03:52:13;26.88;;;14.98;;
23140;SDS011;11739;54.750;9.124;2022-10-31T03:57:25;28.30;;;13.70;;
23140;SDS011;11739;54.750;9.124;2022-10-31T03:59:59;12.23;;;11.13;;
23140;SDS011;11739;54.750;9.124;2022-10-31T04:02:29;11.65;;;10.65;;
23140;SDS011;11739;54.750;9.124;2022-10-31T04:04:59;20.23;;;10.45;;
23140;SDS011;11739;54.750;9.124;2022-10-31T04:07:27;49.83;;;10.80;;
23140;SDS011;11739;54.750;9.124;2022-10-31T04:09:58;10.93;;;9.83;;
23140;SDS011;11739;54.750;9.124;2022-10-31T04:12:26;9.65;;;8.85;;
23140;SDS011;11739;54.750;9.124;2022-10-31T04:14:53;14.85;;;11.90;;
23140;SDS011;11739;54.750;9.124;2022-10-31T04:17:21;11.30;;;10.13;;
23140;SDS011;11739;54.750;9.124;2022-10-31T04:19:49;10.40;;;9.38;;
23140;SDS011;11739;54.750;9.124;2022-10-31T04:22:15;11.95;;;10.52;;
23140;SDS011;11739;54.750;9.124;2022-10-31T04:24:42;11.02;;;9.93;;
23140;SDS011;11739;54.750;9.124;2022-10-31T04:27:11;10.98;;;9.68;;
23140;SDS011;11739;54.750;9.124;2022-10-31T04:29:37;12.07;;;7.53;;
23140;SDS011;11739;54.750;9.124;2022-10-31T04:32:04;16.80;;;6.90;;
23140;SDS011;11739;54.750;9.124;2022-10-31T04:34:30;7.95;;;7.22;;
23140;SDS011;11739;54.750;9.124;2022-10-31T04:36:57;65.18;;;9.63;;
23140;SDS011;11739;54.750;9.124;2022-10-31T04:39:23;8.82;;;7.97;;
23140;SDS011;11739;54.750;9.124;2022-10-31T04:41:52;21.23;;;8.57;;
23140;SDS011;11739;54.750;9.124;2022-10-31T04:44:18;8.27;;;7.53;;
23140;SDS011;11739;54.750;9.124;2022-10-31T04:46:45;8.70;;;7.90;;
23140;SDS011;11739;54.750;9.124;2022-10-31T04:49:11;14.65;;;8.82;;
23140;SDS011;11739;54.750;9.124;2022-10-31T04:51:38;8.23;;;7.53;;
23140;SDS011;11739;54.750;9.124;2022-10-31T04:54:04;32.20;;;8.02;;
23140;SDS011;11739;54.750;9.124;2022-10-31T04:56:31;7.63;;;6.93;;
23140;SDS011;11739;54.750;9.124;2022-10-31T04:58:57;8.15;;;7.18;;
23140;SDS011;11739;54.750;9.124;2022-10-31T05:01:23;9.10;;;8.30;;
23140;SDS011;11739;54.750;9.124;2022-10-31T05:03:50;8.80;;;8.07;;
23140;SDS011;11739;54.750;9.124;2022-10-31T05:06:17;8.90;;;8.10;;
23140;SDS011;11739;54.750;9.124;2022-10-31T05:08:43;7.80;;;7.20;;
23140;SDS011;11739;54.750;9.124;2022-10-31T05:11:10;6.82;;;6.30;;
23140;SDS011;11739;54.750;9.124;2022-10-31T05:13:37;9.55;;;6.93;;
23140;SDS011;11739;54.750;9.124;2022-10-31T05:16:04;7.18;;;6.57;;
23140;SDS011;11739;54.750;9.124;2022-10-31T05:18:30;3.70;;;3.50;;
23140;SDS011;11739;54.750;9.124;2022-10-31T05:20:57;81.88;;;6.97;;
23140;SDS011;11739;54.750;9.124;2022-10-31T05:23:23;37.60;;;5.53;;
23140;SDS011;11739;54.750;9.124;2022-10-31T05:25:50;52.33;;;6.07;;
23140;SDS011;11739;54.750;9.124;2022-10-31T05:28:16;4.70;;;4.40;;
23140;SDS011;11739;54.750;9.124;2022-10-31T05:30:43;31.00;;;6.28;;
23140;SDS011;11739;54.750;9.124;2022-10-31T05:33:09;4.60;;;4.30;;
23140;SDS011;11739;54.750;9.124;2022-10-31T05:35:36;5.63;;;5.22;;
23140;SDS011;11739;54.750;9.124;2022-10-31T05:38:02;6.25;;;5.85;;
23140;SDS011;11739;54.750;9.124;2022-10-31T05:40:29;5.70;;;5.30;;
23140;SDS011;11739;54.750;9.124;2022-10-31T05:42:56;5.13;;;4.82;;
23140;SDS011;11739;54.750;9.124;2022-10-31T05:45:24;5.63;;;5.22;;
23140;SDS011;11739;54.750;9.124;2022-10-31T05:47:53;5.72;;;5.28;;
23140;SDS011;11739;54.750;9.124;2022-10-31T05:50:23;4.93;;;4.60;;
23140;SDS011;11739;54.750;9.124;2022-10-31T05:52:56;5.07;;;4.68;;
23140;SDS011;11739;54.750;9.124;2022-10-31T05:55:24;5.00;;;4.60;;
23140;SDS011;11739;54.750;9.124;2022-10-31T05:57:52;5.13;;;4.72;;
23140;SDS011;11739;54.750;9.124;2022-10-31T06:00:19;5.10;;;4.70;;
23140;SDS011;11739;54.750;9.124;2022-10-31T06:02:46;5.75;;;5.35;;
23140;SDS011;11739;54.750;9.124;2022-10-31T06:05:13;5.40;;;5.00;;
23140;SDS011;11739;54.750;9.124;2022-10-31T06:07:39;5.78;;;5.28;;
23140;SDS011;11739;54.750;9.124;2022-10-31T06:10:06;4.68;;;4.38;;
23140;SDS011;11739;54.750;9.124;2022-10-31T06:12:34;30.80;;;5.78;;
23140;SDS011;11739;54.750;9.124;2022-10-31T06:15:07;21.30;;;4.57;;
23140;SDS011;11739;54.750;9.124;2022-10-31T06:17:34;42.63;;;5.72;;
23140;SDS011;11739;54.750;9.124;2022-10-31T06:20:01;36.17;;;5.20;;
23140;SDS011;11739;54.750;9.124;2022-10-31T06:22:28;22.88;;;4.82;;
23140;SDS011;11739;54.750;9.124;2022-10-31T06:24:55;4.82;;;4.43;;
23140;SDS011;11739;54.750;9.124;2022-10-31T06:27:22;13.27;;;6.68;;
23140;SDS011;11739;54.750;9.124;2022-10-31T06:29:48;7.07;;;6.38;;
23140;SDS011;11739;54.750;9.124;2022-10-31T06:32:15;7.10;;;6.25;;
23140;SDS011;11739;54.750;9.124;2022-10-31T06:34:42;7.68;;;6.88;;
23140;SDS011;11739;54.750;9.124;2022-10-31T06:37:10;12.77;;;8.23;;
23140;SDS011;11739;54.750;9.124;2022-10-31T06:39:37;11.43;;;8.13;;
23140;SDS011;11739;54.750;9.124;2022-10-31T06:42:04;11.35;;;7.13;;
23140;SDS011;11739;54.750;9.124;2022-10-31T06:44:31;7.70;;;7.00;;
23140;SDS011;11739;54.750;9.124;2022-10-31T06:46:57;7.70;;;7.00;;
23140;SDS011;11739;54.750;9.124;2022-10-31T06:49:25;70.68;;;12.88;;
23140;SDS011;11739;54.750;9.124;2022-10-31T06:51:51;43.70;;;11.07;;
23140;SDS011;11739;54.750;9.124;2022-10-31T06:54:18;14.65;;;8.93;;
23140;SDS011;11739;54.750;9.124;2022-10-31T06:56:46;7.35;;;6.75;;
23140;SDS011;11739;54.750;9.124;2022-10-31T06:59:13;16.95;;;10.73;;
23140;SDS011;11739;54.750;9.124;2022-10-31T07:01:40;9.75;;;8.18;;
23140;SDS011;11739;54.750;9.124;2022-10-31T07:04:08;7.93;;;7.13;;
23140;SDS011;11739;54.750;9.124;2022-10-31T07:06:35;10.27;;;8.80;;
23140;SDS011;11739;54.750;9.124;2022-10-31T07:09:02;10.60;;;9.15;;
23140;SDS011;11739;54.750;9.124;2022-10-31T07:11:28;9.15;;;8.20;;
23140;SDS011;11739;54.750;9.124;2022-10-31T07:13:55;10.45;;;8.43;;
23140;SDS011;11739;54.750;9.124;2022-10-31T07:16:22;11.27;;;8.93;;
23140;SDS011;11739;54.750;9.124;2022-10-31T07:18:48;7.97;;;7.28;;
23140;SDS011;11739;54.750;9.124;2022-10-31T07:21:16;8.27;;;7.57;;
23140;SDS011;11739;54.750;9.124;2022-10-31T07:23:42;8.65;;;7.75;;
23140;SDS011;11739;54.750;9.124;2022-10-31T07:26:09;10.15;;;8.32;;
23140;SDS011;11739;54.750;9.124;2022-10-31T07:28:35;10.70;;;9.02;;
23140;SDS011;11739;54.750;9.124;2022-10-31T07:31:02;10.65;;;8.98;;
23140;SDS011;11739;54.750;9.124;2022-10-31T07:33:28;9.23;;;8.30;;
23140;SDS011;11739;54.750;9.124;2022-10-31T07:35:55;10.93;;;8.85;;
23140;SDS011;11739;54.750;9.124;2022-10-31T07:38:21;13.05;;;9.07;;
23140;SDS011;11739;54.750;9.124;2022-10-31T07:40:51;11.60;;;9.25;;
23140;SDS011;11739;54.750;9.124;2022-10-31T07:43:21;9.00;;;6.67;;
23140;SDS011;11739;54.750;9.124;2022-10-31T07:45:53;10.02;;;8.40;;
23140;SDS011;11739;54.750;9.124;2022-10-31T07:48:20;12.63;;;9.93;;
23140;SDS011;11739;54.750;9.124;2022-10-31T07:50:47;17.65;;;10.75;;
23140;SDS011;11739;54.750;9.124;2022-10-31T07:53:13;15.25;;;9.18;;
23140;SDS011;11739;54.750;9.124;2022-10-31T07:55:40;10.77;;;8.75;;
23140;SDS011;11739;54.750;9.124;2022-10-31T07:58:08;14.30;;;9.63;;
23140;SDS011;11739;54.750;9.124;2022-10-31T08:00:39;10.77;;;8.68;;
23140;SDS011;11739;54.750;9.124;2022-10-31T08:03:08;9.65;;;8.57;;
23140;SDS011;11739;54.750;9.124;2022-10-31T08:05:38;15.98;;;10.38;;
23140;SDS011;11739;54.750;9.124;2022-10-31T08:08:07;15.40;;;11.32;;
23140;SDS011;11739;54.750;9.124;2022-10-31T08:10:34;11.18;;;9.23;;
23140;SDS011;11739;54.750;9.124;2022-10-31T08:13:02;12.40;;;10.02;;
23140;SDS011;11739;54.750;9.124;2022-10-31T08:15:33;12.15;;;10.30;;
23140;SDS011;11739;54.750;9.124;2022-10-31T08:18:05;17.40;;;11.02;;
23140;SDS011;11739;54.750;9.124;2022-10-31T08:20:32;18.20;;;11.38;;
23140;SDS011;11739;54.750;9.124;2022-10-31T08:22:59;18.85;;;11.95;;
23140;SDS011;11739;54.750;9.124;2022-10-31T08:25:29;11.85;;;9.43;;
23140;SDS011;11739;54.750;9.124;2022-10-31T08:28:02;12.18;;;10.20;;
23140;SDS011;11739;54.750;9.124;2022-10-31T08:30:29;12.80;;;9.23;;
23140;SDS011;11739;54.750;9.124;2022-10-31T08:32:58;10.55;;;8.40;;
23140;SDS011;11739;54.750;9.124;2022-10-31T08:35:40;10.77;;;8.13;;
23140;SDS011;11739;54.750;9.124;2022-10-31T08:38:08;11.45;;;9.73;;
23140;SDS011;11739;54.750;9.124;2022-10-31T08:40:36;13.95;;;9.65;;
23140;SDS011;11739;54.750;9.124;2022-10-31T08:43:21;10.45;;;7.93;;
23140;SDS011;11739;54.750;9.124;2022-10-31T08:45:48;14.80;;;9.68;;
23140;SDS011;11739;54.750;9.124;2022-10-31T08:48:15;16.73;;;9.85;;
23140;SDS011;11739;54.750;9.124;2022-10-31T08:50:43;12.90;;;8.60;;
23140;SDS011;11739;54.750;9.124;2022-10-31T08:53:15;14.98;;;9.15;;
23140;SDS011;11739;54.750;9.124;2022-10-31T08:55:43;13.18;;;9.32;;
23140;SDS011;11739;54.750;9.124;2022-10-31T08:58:14;15.60;;;10.63;;
23140;SDS011;11739;54.750;9.124;2022-10-31T09:00:42;14.65;;;8.35;;
23140;SDS011;11739;54.750;9.124;2022-10-31T09:03:11;12.30;;;8.68;;
23140;SDS011;11739;54.750;9.124;2022-10-31T09:05:39;11.02;;;8.18;;
23140;SDS011;11739;54.750;9.124;2022-10-31T09:08:06;12.68;;;8.38;;
23140;SDS011;11739;54.750;9.124;2022-10-31T09:10:41;12.75;;;8.57;;
23140;SDS011;11739;54.750;9.124;2022-10-31T09:13:12;12.98;;;8.18;;
23140;SDS011;11739;54.750;9.124;2022-10-31T09:15:40;15.90;;;9.00;;
23140;SDS011;11739;54.750;9.124;2022-10-31T09:18:10;10.95;;;8.00;;
23140;SDS011;11739;54.750;9.124;2022-10-31T09:20:37;13.00;;;8.13;;
23140;SDS011;11739;54.750;9.124;2022-10-31T09:23:05;10.98;;;7.60;;
23140;SDS011;11739;54.750;9.124;2022-10-31T09:25:33;14.88;;;7.88;;
23140;SDS011;11739;54.750;9.124;2022-10-31T09:28:01;11.70;;;8.20;;
23140;SDS011;11739;54.750;9.124;2022-10-31T09:30:32;12.95;;;8.27;;
23140;SDS011;11739;54.750;9.124;2022-10-31T09:33:00;15.13;;;7.70;;
23140;SDS011;11739;54.750;9.124;2022-10-31T09:35:28;16.02;;;7.47;;
23140;SDS011;11739;54.750;9.124;2022-10-31T09:38:02;11.77;;;8.10;;
23140;SDS011;11739;54.750;9.124;2022-10-31T09:40:38;12.23;;;7.38;;
23140;SDS011;11739;54.750;9.124;2022-10-31T09:43:13;10.90;;;7.57;;
23140;SDS011;11739;54.750;9.124;2022-10-31T09:45:49;11.10;;;7.10;;
23140;SDS011;11739;54.750;9.124;2022-10-31T09:51:12;17.65;;;9.38;;
23140;SDS011;11739;54.750;9.124;2022-10-31T09:53:54;16.55;;;8.13;;
23140;SDS011;11739;54.750;9.124;2022-10-31T09:56:26;15.60;;;9.00;;
23140;SDS011;11739;54.750;9.124;2022-10-31T09:58:53;13.55;;;7.60;;
23140;SDS011;11739;54.750;9.124;2022-10-31T10:01:37;13.55;;;7.65;;
23140;SDS011;11739;54.750;9.124;2022-10-31T10:04:17;9.75;;;6.82;;
23140;SDS011;11739;54.750;9.124;2022-10-31T10:06:51;14.45;;;7.43;;
23140;SDS011;11739;54.750;9.124;2022-10-31T10:09:19;13.07;;;7.28;;
23140;SDS011;11739;54.750;9.124;2022-10-31T10:17:25;13.93;;;7.22;;
23140;SDS011;11739;54.750;9.124;2022-10-31T10:20:16;15.75;;;6.82;;
23140;SDS011;11739;54.750;9.124;2022-10-31T10:23:13;15.10;;;6.30;;
23140;SDS011;11739;54.750;9.124;2022-10-31T10:26:24;14.50;;;7.15;;
23140;SDS011;11739;54.750;9.124;2022-10-31T10:28:54;10.18;;;6.03;;
23140;SDS011;11739;54.750;9.124;2022-10-31T10:31:24;12.07;;;5.50;;
23140;SDS011;11739;54.750;9.124;2022-10-31T10:34:02;13.18;;;5.20;;
23140;SDS011;11739;54.750;9.124;2022-10-31T10:36:33;9.75;;;5.07;;
23140;SDS011;11739;54.750;9.124;2022-10-31T10:39:04;13.73;;;5.22;;
23140;SDS011;11739;54.750;9.124;2022-10-31T10:41:37;9.75;;;4.88;;
23140;SDS011;11739;54.750;9.124;2022-10-31T10:44:07;11.40;;;5.63;;
23140;SDS011;11739;54.750;9.124;2022-10-31T10:46:42;14.20;;;6.05;;
23140;SDS011;11739;54.750;9.124;2022-10-31T10:49:40;9.43;;;5.60;;
23140;SDS011;11739;54.750;9.124;2022-10-31T10:52:25;10.98;;;5.70;;
23140;SDS011;11739;54.750;9.124;2022-10-31T10:55:19;8.75;;;4.88;;
23140;SDS011;11739;54.750;9.124;2022-10-31T10:57:55;9.88;;;5.13;;
23140;SDS011;11739;54.750;9.124;2022-10-31T11:00:40;12.73;;;4.57;;
23140;SDS011;11739;54.750;9.124;2022-10-31T11:03:08;8.77;;;3.53;;
23140;SDS011;11739;54.750;9.124;2022-10-31T11:05:43;11.77;;;3.40;;
23140;SDS011;11739;54.750;9.124;2022-10-31T11:08:23;10.32;;;2.60;;
23140;SDS011;11739;54.750;9.124;2022-10-31T11:15:58;6.65;;;2.15;;
23140;SDS011;11739;54.750;9.124;2022-10-31T11:18:30;7.88;;;2.40;;
23140;SDS011;11739;54.750;9.124;2022-10-31T11:20:59;9.45;;;2.50;;
23140;SDS011;11739;54.750;9.124;2022-10-31T11:23:27;10.80;;;2.78;;
23140;SDS011;11739;54.750;9.124;2022-10-31T11:25:58;6.45;;;2.53;;
23140;SDS011;11739;54.750;9.124;2022-10-31T11:28:27;9.07;;;2.63;;
23140;SDS011;11739;54.750;9.124;2022-10-31T11:30:56;10.15;;;2.65;;
23140;SDS011;11739;54.750;9.124;2022-10-31T11:33:40;7.35;;;2.63;;
23140;SDS011;11739;54.750;9.124;2022-10-31T11:36:25;6.57;;;2.42;;
23140;SDS011;11739;54.750;9.124;2022-10-31T11:38:53;10.95;;;2.83;;
23140;SDS011;11739;54.750;9.124;2022-10-31T11:41:24;10.95;;;2.70;;
23140;SDS011;11739;54.750;9.124;2022-10-31T11:43:56;8.60;;;2.53;;
23140;SDS011;11739;54.750;9.124;2022-10-31T11:46:32;7.57;;;2.33;;
23140;SDS011;11739;54.750;9.124;2022-10-31T11:49:01;7.60;;;2.08;;
23140;SDS011;11739;54.750;9.124;2022-10-31T11:51:32;5.82;;;2.28;;
23140;SDS011;11739;54.750;9.124;2022-10-31T11:54:00;8.70;;;2.28;;
23140;SDS011;11739;54.750;9.124;2022-10-31T11:56:39;10.05;;;2.75;;
23140;SDS011;11739;54.750;9.124;2022-10-31T12:01:56;8.98;;;2.55;;
23140;SDS011;11739;54.750;9.124;2022-10-31T12:09:33;7.38;;;2.20;;
23140;SDS011;11739;54.750;9.124;2022-10-31T12:34:09;5.55;;;2.10;;
23140;SDS011;11739;54.750;9.124;2022-10-31T12:37:01;8.07;;;2.50;;
23140;SDS011;11739;54.750;9.124;2022-10-31T12:39:42;8.27;;;2.72;;
23140;SDS011;11739;54.750;9.124;2022-10-31T12:45:14;8.00;;;2.42;;
23140;SDS011;11739;54.750;9.124;2022-10-31T12:53:25;5.47;;;2.40;;
23140;SDS011;11739;54.750;9.124;2022-10-31T12:56:25;6.65;;;2.40;;
23140;SDS011;11739;54.750;9.124;2022-10-31T13:02:10;11.10;;;2.60;;
23140;SDS011;11739;54.750;9.124;2022-10-31T13:07:52;8.25;;;2.55;;
23140;SDS011;11739;54.750;9.124;2022-10-31T13:13:07;9.13;;;2.97;;
23140;SDS011;11739;54.750;9.124;2022-10-31T13:16:00;8.30;;;2.60;;
23140;SDS011;11739;54.750;9.124;2022-10-31T13:18:32;7.53;;;2.95;;
23140;SDS011;11739;54.750;9.124;2022-10-31T13:21:02;8.23;;;2.80;;
23140;SDS011;11739;54.750;9.124;2022-10-31T13:23:34;6.00;;;2.45;;
23140;SDS011;11739;54.750;9.124;2022-10-31T13:31:41;6.63;;;2.20;;
23140;SDS011;11739;54.750;9.124;2022-10-31T13:34:54;5.43;;;2.40;;
23140;SDS011;11739;54.750;9.124;2022-10-31T13:37:12;6.03;;;2.40;;
23140;SDS011;11739;54.750;9.124;2022-10-31T13:45:21;7.45;;;2.67;;
23140;SDS011;11739;54.750;9.124;2022-10-31T13:47:56;5.03;;;2.70;;
23140;SDS011;11739;54.750;9.124;2022-10-31T13:50:28;9.20;;;2.88;;
23140;SDS011;11739;54.750;9.124;2022-10-31T13:55:46;6.55;;;3.08;;
23140;SDS011;11739;54.750;9.124;2022-10-31T13:58:29;7.40;;;2.85;;
23140;SDS011;11739;54.750;9.124;2022-10-31T14:01:05;6.20;;;2.60;;
23140;SDS011;11739;54.750;9.124;2022-10-31T14:03:45;9.13;;;3.05;;
23140;SDS011;11739;54.750;9.124;2022-10-31T14:09:23;5.90;;;3.03;;
23140;SDS011;11739;54.750;9.124;2022-10-31T14:11:51;8.00;;;3.38;;
23140;SDS011;11739;54.750;9.124;2022-10-31T14:14:19;6.20;;;2.72;;
23140;SDS011;11739;54.750;9.124;2022-10-31T14:16:52;8.10;;;3.08;;
23140;SDS011;11739;54.750;9.124;2022-10-31T14:19:21;7.78;;;2.78;;
23140;SDS011;11739;54.750;9.124;2022-10-31T14:21:48;6.13;;;2.50;;
23140;SDS011;11739;54.750;9.124;2022-10-31T14:26:54;4.65;;;2.33;;
23140;SDS011;11739;54.750;9.124;2022-10-31T14:29:50;6.43;;;2.90;;
23140;SDS011;11739;54.750;9.124;2022-10-31T14:32:23;6.25;;;2.53;;
23140;SDS011;11739;54.750;9.124;2022-10-31T14:51:39;7.22;;;3.00;;
23140;SDS011;11739;54.750;9.124;2022-10-31T14:54:10;7.03;;;2.83;;
23140;SDS011;11739;54.750;9.124;2022-10-31T14:56:41;7.05;;;3.45;;
23140;SDS011;11739;54.750;9.124;2022-10-31T14:59:15;5.72;;;2.55;;
23140;SDS011;11739;54.750;9.124;2022-10-31T15:01:48;7.10;;;3.22;;
23140;SDS011;11739;54.750;9.124;2022-10-31T15:04:27;6.03;;;2.63;;
23140;SDS011;11739;54.750;9.124;2022-10-31T15:09:57;7.97;;;2.50;;
23140;SDS011;11739;54.750;9.124;2022-10-31T15:15:09;4.95;;;2.95;;
23140;SDS011;11739;54.750;9.124;2022-10-31T15:17:41;9.45;;;4.38;;
23140;SDS011;11739;54.750;9.124;2022-10-31T15:20:11;9.73;;;4.38;;
23140;SDS011;11739;54.750;9.124;2022-10-31T15:22:43;10.93;;;4.90;;
23140;SDS011;11739;54.750;9.124;2022-10-31T15:25:20;12.75;;;6.50;;
23140;SDS011;11739;54.750;9.124;2022-10-31T15:27:49;15.80;;;8.80;;
23140;SDS011;11739;54.750;9.124;2022-10-31T15:30:17;14.40;;;9.02;;
23140;SDS011;11739;54.750;9.124;2022-10-31T15:32:48;13.98;;;9.90;;
23140;SDS011;11739;54.750;9.124;2022-10-31T15:35:27;12.65;;;10.85;;
23140;SDS011;11739;54.750;9.124;2022-10-31T15:37:55;13.75;;;11.80;;
23140;SDS011;11739;54.750;9.124;2022-10-31T15:40:24;13.00;;;11.48;;
23140;SDS011;11739;54.750;9.124;2022-10-31T15:42:53;12.60;;;11.40;;
23140;SDS011;11739;54.750;9.124;2022-10-31T15:45:22;16.08;;;12.02;;
23140;SDS011;11739;54.750;9.124;2022-10-31T15:48:00;16.67;;;12.32;;
23140;SDS011;11739;54.750;9.124;2022-10-31T15:50:32;16.90;;;15.10;;
23140;SDS011;11739;54.750;9.124;2022-10-31T15:53:21;26.50;;;17.08;;
23140;SDS011;11739;54.750;9.124;2022-10-31T15:55:51;14.88;;;13.25;;
23140;SDS011;11739;54.750;9.124;2022-10-31T15:58:20;22.02;;;13.65;;
23140;SDS011;11739;54.750;9.124;2022-10-31T16:00:56;15.02;;;12.80;;
23140;SDS011;11739;54.750;9.124;2022-10-31T16:03:25;16.42;;;13.95;;
23140;SDS011;11739;54.750;9.124;2022-10-31T16:05:55;16.83;;;14.45;;
23140;SDS011;11739;54.750;9.124;2022-10-31T16:13:33;16.10;;;12.50;;
23140;SDS011;11739;54.750;9.124;2022-10-31T16:16:03;15.20;;;12.30;;
23140;SDS011;11739;54.750;9.124;2022-10-31T16:18:51;16.50;;;12.52;;
23140;SDS011;11739;54.750;9.124;2022-10-31T16:21:23;18.90;;;12.60;;
23140;SDS011;11739;54.750;9.124;2022-10-31T16:23:58;15.15;;;12.23;;
23140;SDS011;11739;54.750;9.124;2022-10-31T16:26:31;14.65;;;10.90;;
23140;SDS011;11739;54.750;9.124;2022-10-31T16:28:58;16.17;;;11.75;;
23140;SDS011;11739;54.750;9.124;2022-10-31T16:31:35;15.00;;;11.75;;
23140;SDS011;11739;54.750;9.124;2022-10-31T16:34:18;14.57;;;10.70;;
23140;SDS011;11739;54.750;9.124;2022-10-31T16:36:52;12.73;;;11.38;;
23140;SDS011;11739;54.750;9.124;2022-10-31T16:39:20;16.20;;;10.70;;
23140;SDS011;11739;54.750;9.124;2022-10-31T16:41:48;14.27;;;11.38;;
23140;SDS011;11739;54.750;9.124;2022-10-31T16:44:23;13.80;;;10.88;;
23140;SDS011;11739;54.750;9.124;2022-10-31T16:49:36;13.75;;;11.38;;
23140;SDS011;11739;54.750;9.124;2022-10-31T16:52:03;16.65;;;11.40;;
23140;SDS011;11739;54.750;9.124;2022-10-31T16:54:29;16.20;;;12.23;;
23140;SDS011;11739;54.750;9.124;2022-10-31T16:56:57;16.77;;;12.63;;
23140;SDS011;11739;54.750;9.124;2022-10-31T16:59:29;15.30;;;11.50;;
23140;SDS011;11739;54.750;9.124;2022-10-31T17:01:56;15.88;;;11.88;;
23140;SDS011;11739;54.750;9.124;2022-10-31T17:04:23;17.15;;;12.15;;
23140;SDS011;11739;54.750;9.124;2022-10-31T17:06:49;16.02;;;11.50;;
23140;SDS011;11739;54.750;9.124;2022-10-31T17:09:16;15.07;;;11.65;;